Lavaca Bay — WDF2105 — position and weather

sailwx.info

Track history (hours):
 
Tides and Currents Weather Stations Pressure Air Temp Water Temp Dewpoint Dewpoint Depression Visibility Wind Speed Wind Dir Waves Ship Positions

Lavaca Bay

Owner: Higman Barge Lines, Inc, Orange, TX. More information available from US FCC via Universal Licensing System and Coast Guard Vessel Documentation Center.

Last reported at 2015-May-15 07:23 UTC. Time now 2015-May-22 20:39 UTC.
Position N 30°42' W 091°21'.

Length 24 m; draft 3 m.

Type: Towing. MMSI: 367424940.

Date/timePositionNaut miles runAvg speedWind from/ knotsBaromVisibWave heightAir tempDewpointWater temp
2015-May-15 07:23N 30°42' W 091°21'4 4.2
2015-May-15 06:33N 30°39' W 091°18'3 2.7
2015-May-15 05:33N 30°36' W 091°18'3 2.7
2015-May-15 04:33N 30°34' W 091°16'3 3.0
2015-May-15 03:33N 30°31' W 091°16'2 1.8
2015-May-15 02:33N 30°31' W 091°14'4 3.7
2015-May-15 01:33N 30°28' W 091°12'4 4.3
2015-May-15 00:33N 30°24' W 091°13'0 0.2
2015-May-14 23:33N 30°24' W 091°13'0 0.2
2015-May-14 22:32N 30°23' W 091°13'5 2.5
2015-May-14 20:24N 30°19' W 091°10'19 2.2
2015-May-14 12:04N 30°06' W 090°55'  
2015-May-11 14:22N 30°20' W 091°13'7 8.1
2015-May-11 13:33N 30°27' W 091°12'6 5.9
2015-May-11 12:33N 30°31' W 091°16'6 5.9
2015-May-11 11:33N 30°37' W 091°18'  
Track history (hours):
 
Tides and Currents Weather Stations Pressure Air Temp Water Temp Dewpoint Dewpoint Depression Visibility Wind Speed Wind Dir Waves Ship Positions

Lavaca Bay

Owner: Higman Barge Lines, Inc, Orange, TX. More information available from US FCC via Universal Licensing System and Coast Guard Vessel Documentation Center.

Last reported at 2015-May-15 07:23 UTC. Time now 2015-May-22 20:39 UTC.
Position N 30°42' W 091°21'.

Length 24 m; draft 3 m.

Type: Towing. MMSI: 367424940.

Date/timePositionNaut miles runAvg speedWind from/ knotsBaromVisibWave heightAir tempDewpointWater temp
2015-May-15 07:23N 30°42' W 091°21'4 4.2
2015-May-15 06:33N 30°39' W 091°18'3 2.7
2015-May-15 05:33N 30°36' W 091°18'3 2.7
2015-May-15 04:33N 30°34' W 091°16'3 3.0
2015-May-15 03:33N 30°31' W 091°16'2 1.8
2015-May-15 02:33N 30°31' W 091°14'4 3.7
2015-May-15 01:33N 30°28' W 091°12'4 4.3
2015-May-15 00:33N 30°24' W 091°13'0 0.2
2015-May-14 23:33N 30°24' W 091°13'0 0.2
2015-May-14 22:32N 30°23' W 091°13'5 2.5
2015-May-14 20:24N 30°19' W 091°10'19 2.2
2015-May-14 12:04N 30°06' W 090°55'  
2015-May-11 14:22N 30°20' W 091°13'7 8.1
2015-May-11 13:33N 30°27' W 091°12'6 5.9
2015-May-11 12:33N 30°31' W 091°16'6 5.9
2015-May-11 11:33N 30°37' W 091°18'  

Dump ship's entire track history